< < Back
Terminal Aerodrome Forecast


Current Version              Previous Versions:   1  2  3  4  5  6  7  8  9  

Terminal Aerodrome Forecast

958
FTUS44 KBMX 262300
TAFANB
TAF
KANB 262329Z 2700/2724 07006KT P6SM FEW070
     FM270100 00000KT P6SM SKC
     FM271500 03005KT P6SM FEW050=

Latest METAR

850
SAUS70 KWBC 271900 RRI
MTRANB
METAR KANB 271853Z AUTO VRB04KT 10SM FEW070 31/16 A3008 RMK AO2 SLP176
T03110156


USA.gov is the U.S. government's official web portal to all federal, state and local government web resources and services.